sensor_id;sensor_type;location;lat;lon;timestamp;P1;durP1;ratioP1;P2;durP2;ratioP2
23578;SDS011;11967;50.852;4.400;2023-02-01T00:00:23;30.85;;;9.25;;
23578;SDS011;11967;50.852;4.400;2023-02-01T00:02:48;33.33;;;9.80;;
23578;SDS011;11967;50.852;4.400;2023-02-01T00:05:14;31.92;;;9.40;;
23578;SDS011;11967;50.852;4.400;2023-02-01T00:07:40;23.92;;;9.02;;
23578;SDS011;11967;50.852;4.400;2023-02-01T00:10:06;35.13;;;8.70;;
23578;SDS011;11967;50.852;4.400;2023-02-01T00:12:32;28.63;;;8.88;;
23578;SDS011;11967;50.852;4.400;2023-02-01T00:14:58;35.25;;;10.32;;
23578;SDS011;11967;50.852;4.400;2023-02-01T00:17:24;29.05;;;10.65;;
23578;SDS011;11967;50.852;4.400;2023-02-01T00:19:50;26.27;;;9.45;;
23578;SDS011;11967;50.852;4.400;2023-02-01T00:22:15;31.98;;;10.52;;
23578;SDS011;11967;50.852;4.400;2023-02-01T00:24:44;33.70;;;10.50;;
23578;SDS011;11967;50.852;4.400;2023-02-01T00:27:09;30.95;;;10.80;;
23578;SDS011;11967;50.852;4.400;2023-02-01T00:29:35;25.50;;;9.50;;
23578;SDS011;11967;50.852;4.400;2023-02-01T00:32:00;35.28;;;11.20;;
23578;SDS011;11967;50.852;4.400;2023-02-01T00:34:26;27.02;;;9.55;;
23578;SDS011;11967;50.852;4.400;2023-02-01T00:36:52;25.73;;;9.32;;
23578;SDS011;11967;50.852;4.400;2023-02-01T00:39:17;30.60;;;10.32;;
23578;SDS011;11967;50.852;4.400;2023-02-01T00:41:43;29.65;;;10.52;;
23578;SDS011;11967;50.852;4.400;2023-02-01T00:44:09;33.63;;;10.05;;
23578;SDS011;11967;50.852;4.400;2023-02-01T00:46:34;29.83;;;8.73;;
23578;SDS011;11967;50.852;4.400;2023-02-01T00:49:00;20.17;;;8.70;;
23578;SDS011;11967;50.852;4.400;2023-02-01T00:51:27;31.20;;;8.70;;
23578;SDS011;11967;50.852;4.400;2023-02-01T00:53:54;26.88;;;8.07;;
23578;SDS011;11967;50.852;4.400;2023-02-01T00:56:20;28.90;;;7.95;;
23578;SDS011;11967;50.852;4.400;2023-02-01T00:58:46;28.23;;;7.88;;
23578;SDS011;11967;50.852;4.400;2023-02-01T01:01:13;27.40;;;8.38;;
23578;SDS011;11967;50.852;4.400;2023-02-01T01:03:45;30.08;;;7.90;;
23578;SDS011;11967;50.852;4.400;2023-02-01T01:06:16;28.67;;;7.68;;
23578;SDS011;11967;50.852;4.400;2023-02-01T01:08:44;33.22;;;9.07;;
23578;SDS011;11967;50.852;4.400;2023-02-01T01:11:14;28.92;;;7.82;;
23578;SDS011;11967;50.852;4.400;2023-02-01T01:13:42;28.48;;;8.02;;
23578;SDS011;11967;50.852;4.400;2023-02-01T01:16:11;25.80;;;8.32;;
23578;SDS011;11967;50.852;4.400;2023-02-01T01:18:36;31.35;;;8.80;;
23578;SDS011;11967;50.852;4.400;2023-02-01T01:21:05;31.80;;;8.43;;
23578;SDS011;11967;50.852;4.400;2023-02-01T01:23:36;25.13;;;8.10;;
23578;SDS011;11967;50.852;4.400;2023-02-01T01:26:05;28.65;;;7.57;;
23578;SDS011;11967;50.852;4.400;2023-02-01T01:28:33;33.70;;;7.85;;
23578;SDS011;11967;50.852;4.400;2023-02-01T01:30:59;22.58;;;7.35;;
23578;SDS011;11967;50.852;4.400;2023-02-01T01:33:25;28.35;;;7.30;;
23578;SDS011;11967;50.852;4.400;2023-02-01T01:35:51;27.02;;;6.32;;
23578;SDS011;11967;50.852;4.400;2023-02-01T01:38:17;29.50;;;7.07;;
23578;SDS011;11967;50.852;4.400;2023-02-01T01:40:46;34.45;;;6.82;;
23578;SDS011;11967;50.852;4.400;2023-02-01T01:43:16;23.98;;;5.82;;
23578;SDS011;11967;50.852;4.400;2023-02-01T01:45:45;27.13;;;6.15;;
23578;SDS011;11967;50.852;4.400;2023-02-01T01:50:55;26.50;;;5.80;;
23578;SDS011;11967;50.852;4.400;2023-02-01T01:53:27;27.20;;;5.93;;
23578;SDS011;11967;50.852;4.400;2023-02-01T01:55:56;28.27;;;5.63;;
23578;SDS011;11967;50.852;4.400;2023-02-01T01:58:23;24.98;;;4.97;;
23578;SDS011;11967;50.852;4.400;2023-02-01T02:00:53;28.52;;;5.07;;
23578;SDS011;11967;50.852;4.400;2023-02-01T02:05:48;22.08;;;4.72;;
23578;SDS011;11967;50.852;4.400;2023-02-01T02:08:18;25.50;;;5.22;;
23578;SDS011;11967;50.852;4.400;2023-02-01T02:10:51;18.67;;;3.63;;
23578;SDS011;11967;50.852;4.400;2023-02-01T02:13:28;22.92;;;5.00;;
23578;SDS011;11967;50.852;4.400;2023-02-01T02:16:02;21.50;;;4.60;;
23578;SDS011;11967;50.852;4.400;2023-02-01T02:29:33;24.17;;;5.05;;
23578;SDS011;11967;50.852;4.400;2023-02-01T02:32:10;33.80;;;5.47;;
23578;SDS011;11967;50.852;4.400;2023-02-01T02:34:54;28.27;;;5.00;;
23578;SDS011;11967;50.852;4.400;2023-02-01T02:37:36;25.38;;;5.25;;
23578;SDS011;11967;50.852;4.400;2023-02-01T02:40:12;25.98;;;5.40;;
23578;SDS011;11967;50.852;4.400;2023-02-01T02:43:03;26.58;;;5.47;;
23578;SDS011;11967;50.852;4.400;2023-02-01T02:49:15;26.55;;;4.75;;
23578;SDS011;11967;50.852;4.400;2023-02-01T02:52:02;32.00;;;5.25;;
23578;SDS011;11967;50.852;4.400;2023-02-01T02:54:53;30.15;;;4.63;;
23578;SDS011;11967;50.852;4.400;2023-02-01T02:57:31;24.15;;;4.90;;
23578;SDS011;11967;50.852;4.400;2023-02-01T03:00:25;19.38;;;4.57;;
23578;SDS011;11967;50.852;4.400;2023-02-01T03:03:12;29.58;;;5.00;;
23578;SDS011;11967;50.852;4.400;2023-02-01T03:05:56;23.73;;;4.68;;
23578;SDS011;11967;50.852;4.400;2023-02-01T03:08:23;22.85;;;5.57;;
23578;SDS011;11967;50.852;4.400;2023-02-01T03:16:27;26.02;;;5.20;;
23578;SDS011;11967;50.852;4.400;2023-02-01T03:18:59;26.40;;;4.85;;
23578;SDS011;11967;50.852;4.400;2023-02-01T03:21:31;26.73;;;5.22;;
23578;SDS011;11967;50.852;4.400;2023-02-01T03:24:29;25.17;;;6.10;;
23578;SDS011;11967;50.852;4.400;2023-02-01T03:27:03;23.35;;;4.50;;
23578;SDS011;11967;50.852;4.400;2023-02-01T03:29:48;22.13;;;4.82;;
23578;SDS011;11967;50.852;4.400;2023-02-01T03:32:18;31.25;;;6.28;;
23578;SDS011;11967;50.852;4.400;2023-02-01T03:34:45;29.70;;;4.55;;
23578;SDS011;11967;50.852;4.400;2023-02-01T03:37:13;23.27;;;4.50;;
23578;SDS011;11967;50.852;4.400;2023-02-01T03:42:27;29.25;;;5.32;;
23578;SDS011;11967;50.852;4.400;2023-02-01T03:47:47;27.27;;;5.28;;
23578;SDS011;11967;50.852;4.400;2023-02-01T03:50:18;26.98;;;5.35;;
23578;SDS011;11967;50.852;4.400;2023-02-01T03:55:23;29.80;;;5.40;;
23578;SDS011;11967;50.852;4.400;2023-02-01T03:57:59;28.67;;;5.07;;
23578;SDS011;11967;50.852;4.400;2023-02-01T04:00:42;27.33;;;4.75;;
23578;SDS011;11967;50.852;4.400;2023-02-01T04:03:09;21.40;;;4.45;;
23578;SDS011;11967;50.852;4.400;2023-02-01T04:05:35;25.92;;;4.88;;
23578;SDS011;11967;50.852;4.400;2023-02-01T04:08:03;31.63;;;4.95;;
23578;SDS011;11967;50.852;4.400;2023-02-01T04:10:30;22.88;;;5.05;;
23578;SDS011;11967;50.852;4.400;2023-02-01T04:12:56;24.63;;;5.05;;
23578;SDS011;11967;50.852;4.400;2023-02-01T04:15:21;27.17;;;5.25;;
23578;SDS011;11967;50.852;4.400;2023-02-01T04:17:47;25.00;;;5.15;;
23578;SDS011;11967;50.852;4.400;2023-02-01T04:20:20;26.92;;;5.00;;
23578;SDS011;11967;50.852;4.400;2023-02-01T04:22:46;30.38;;;5.65;;
23578;SDS011;11967;50.852;4.400;2023-02-01T04:25:11;26.67;;;5.07;;
23578;SDS011;11967;50.852;4.400;2023-02-01T04:27:39;24.98;;;4.95;;
23578;SDS011;11967;50.852;4.400;2023-02-01T04:30:05;22.98;;;4.72;;
23578;SDS011;11967;50.852;4.400;2023-02-01T04:32:34;31.58;;;5.78;;
23578;SDS011;11967;50.852;4.400;2023-02-01T04:35:00;29.67;;;5.20;;
23578;SDS011;11967;50.852;4.400;2023-02-01T04:37:26;26.85;;;4.72;;
23578;SDS011;11967;50.852;4.400;2023-02-01T04:39:52;28.83;;;4.32;;
23578;SDS011;11967;50.852;4.400;2023-02-01T04:42:17;33.08;;;5.18;;
23578;SDS011;11967;50.852;4.400;2023-02-01T04:44:45;24.13;;;5.28;;
23578;SDS011;11967;50.852;4.400;2023-02-01T04:47:10;28.80;;;4.45;;
23578;SDS011;11967;50.852;4.400;2023-02-01T04:49:36;32.80;;;5.40;;
23578;SDS011;11967;50.852;4.400;2023-02-01T04:52:01;26.73;;;4.65;;
23578;SDS011;11967;50.852;4.400;2023-02-01T04:54:29;25.45;;;4.85;;
23578;SDS011;11967;50.852;4.400;2023-02-01T04:56:54;31.30;;;5.40;;
23578;SDS011;11967;50.852;4.400;2023-02-01T04:59:20;22.95;;;4.97;;
23578;SDS011;11967;50.852;4.400;2023-02-01T05:01:45;31.63;;;5.00;;
23578;SDS011;11967;50.852;4.400;2023-02-01T05:04:13;35.40;;;5.13;;
23578;SDS011;11967;50.852;4.400;2023-02-01T05:06:43;29.77;;;4.80;;
23578;SDS011;11967;50.852;4.400;2023-02-01T05:09:11;21.77;;;4.28;;
23578;SDS011;11967;50.852;4.400;2023-02-01T05:11:37;30.60;;;5.38;;
23578;SDS011;11967;50.852;4.400;2023-02-01T05:14:21;26.88;;;5.00;;
23578;SDS011;11967;50.852;4.400;2023-02-01T05:16:47;19.88;;;4.55;;
23578;SDS011;11967;50.852;4.400;2023-02-01T05:19:13;27.02;;;5.55;;
23578;SDS011;11967;50.852;4.400;2023-02-01T05:21:38;28.52;;;5.20;;
23578;SDS011;11967;50.852;4.400;2023-02-01T05:24:04;28.17;;;5.10;;
23578;SDS011;11967;50.852;4.400;2023-02-01T05:26:41;24.67;;;4.90;;
23578;SDS011;11967;50.852;4.400;2023-02-01T05:29:07;29.50;;;4.75;;
23578;SDS011;11967;50.852;4.400;2023-02-01T05:31:34;26.38;;;4.20;;
23578;SDS011;11967;50.852;4.400;2023-02-01T05:34:00;34.88;;;5.57;;
23578;SDS011;11967;50.852;4.400;2023-02-01T05:36:26;25.13;;;4.63;;
23578;SDS011;11967;50.852;4.400;2023-02-01T05:38:52;33.45;;;5.60;;
23578;SDS011;11967;50.852;4.400;2023-02-01T05:41:18;27.55;;;4.75;;
23578;SDS011;11967;50.852;4.400;2023-02-01T05:43:46;23.52;;;5.03;;
23578;SDS011;11967;50.852;4.400;2023-02-01T05:46:12;21.38;;;4.32;;
23578;SDS011;11967;50.852;4.400;2023-02-01T05:48:39;29.00;;;4.93;;
23578;SDS011;11967;50.852;4.400;2023-02-01T05:51:05;29.05;;;4.88;;
23578;SDS011;11967;50.852;4.400;2023-02-01T05:53:30;29.73;;;4.88;;
23578;SDS011;11967;50.852;4.400;2023-02-01T05:55:56;28.08;;;5.40;;
23578;SDS011;11967;50.852;4.400;2023-02-01T05:58:22;24.98;;;5.00;;
23578;SDS011;11967;50.852;4.400;2023-02-01T06:00:47;24.80;;;5.60;;
23578;SDS011;11967;50.852;4.400;2023-02-01T06:03:13;27.20;;;4.70;;
23578;SDS011;11967;50.852;4.400;2023-02-01T06:05:38;22.50;;;4.60;;
23578;SDS011;11967;50.852;4.400;2023-02-01T06:08:04;28.30;;;6.35;;
23578;SDS011;11967;50.852;4.400;2023-02-01T06:10:32;33.42;;;5.00;;
23578;SDS011;11967;50.852;4.400;2023-02-01T06:12:58;25.40;;;4.18;;
23578;SDS011;11967;50.852;4.400;2023-02-01T06:15:24;34.55;;;5.35;;
23578;SDS011;11967;50.852;4.400;2023-02-01T06:17:49;23.70;;;4.72;;
23578;SDS011;11967;50.852;4.400;2023-02-01T06:20:15;28.13;;;5.07;;
23578;SDS011;11967;50.852;4.400;2023-02-01T06:22:42;19.48;;;4.82;;
23578;SDS011;11967;50.852;4.400;2023-02-01T06:25:09;24.58;;;4.82;;
23578;SDS011;11967;50.852;4.400;2023-02-01T06:27:35;29.20;;;5.25;;
23578;SDS011;11967;50.852;4.400;2023-02-01T06:30:01;29.90;;;4.68;;
23578;SDS011;11967;50.852;4.400;2023-02-01T06:32:28;30.52;;;5.32;;
23578;SDS011;11967;50.852;4.400;2023-02-01T06:34:53;27.58;;;4.85;;
23578;SDS011;11967;50.852;4.400;2023-02-01T06:37:20;26.63;;;4.57;;
23578;SDS011;11967;50.852;4.400;2023-02-01T06:39:46;28.05;;;4.40;;
23578;SDS011;11967;50.852;4.400;2023-02-01T06:42:12;35.15;;;5.30;;
23578;SDS011;11967;50.852;4.400;2023-02-01T06:44:38;33.45;;;5.38;;
23578;SDS011;11967;50.852;4.400;2023-02-01T06:47:04;28.98;;;5.32;;
23578;SDS011;11967;50.852;4.400;2023-02-01T06:49:29;25.63;;;5.13;;
23578;SDS011;11967;50.852;4.400;2023-02-01T06:51:55;26.27;;;4.45;;
23578;SDS011;11967;50.852;4.400;2023-02-01T06:54:21;33.90;;;4.63;;
23578;SDS011;11967;50.852;4.400;2023-02-01T06:56:47;34.72;;;4.90;;
23578;SDS011;11967;50.852;4.400;2023-02-01T06:59:12;30.00;;;4.70;;
23578;SDS011;11967;50.852;4.400;2023-02-01T07:01:38;22.25;;;4.07;;
23578;SDS011;11967;50.852;4.400;2023-02-01T07:04:04;27.50;;;5.20;;
23578;SDS011;11967;50.852;4.400;2023-02-01T07:06:31;29.38;;;5.22;;
23578;SDS011;11967;50.852;4.400;2023-02-01T07:08:58;26.30;;;4.82;;
23578;SDS011;11967;50.852;4.400;2023-02-01T07:11:25;26.73;;;5.18;;
23578;SDS011;11967;50.852;4.400;2023-02-01T07:13:52;34.70;;;5.70;;
23578;SDS011;11967;50.852;4.400;2023-02-01T07:16:19;30.08;;;5.22;;
23578;SDS011;11967;50.852;4.400;2023-02-01T07:18:46;33.88;;;5.50;;
23578;SDS011;11967;50.852;4.400;2023-02-01T07:21:17;30.35;;;6.00;;
23578;SDS011;11967;50.852;4.400;2023-02-01T07:23:44;26.73;;;5.28;;
23578;SDS011;11967;50.852;4.400;2023-02-01T07:26:18;31.50;;;5.32;;
23578;SDS011;11967;50.852;4.400;2023-02-01T07:28:43;29.55;;;5.15;;
23578;SDS011;11967;50.852;4.400;2023-02-01T07:31:13;32.45;;;5.82;;
23578;SDS011;11967;50.852;4.400;2023-02-01T07:33:41;29.92;;;5.38;;
23578;SDS011;11967;50.852;4.400;2023-02-01T07:36:08;34.83;;;5.45;;
23578;SDS011;11967;50.852;4.400;2023-02-01T07:38:37;27.13;;;4.45;;
23578;SDS011;11967;50.852;4.400;2023-02-01T07:41:03;28.45;;;5.93;;
23578;SDS011;11967;50.852;4.400;2023-02-01T07:43:30;35.45;;;5.68;;
23578;SDS011;11967;50.852;4.400;2023-02-01T07:45:57;37.92;;;5.80;;
23578;SDS011;11967;50.852;4.400;2023-02-01T07:48:24;32.60;;;5.07;;
23578;SDS011;11967;50.852;4.400;2023-02-01T07:51:00;34.17;;;5.90;;
23578;SDS011;11967;50.852;4.400;2023-02-01T07:53:31;28.17;;;5.47;;
23578;SDS011;11967;50.852;4.400;2023-02-01T07:55:58;32.47;;;5.20;;
23578;SDS011;11967;50.852;4.400;2023-02-01T07:58:25;36.25;;;5.75;;
23578;SDS011;11967;50.852;4.400;2023-02-01T08:00:51;34.05;;;5.85;;
23578;SDS011;11967;50.852;4.400;2023-02-01T08:03:36;34.78;;;5.95;;
23578;SDS011;11967;50.852;4.400;2023-02-01T08:06:02;34.95;;;5.65;;
23578;SDS011;11967;50.852;4.400;2023-02-01T08:08:28;27.83;;;5.20;;
23578;SDS011;11967;50.852;4.400;2023-02-01T08:10:57;37.47;;;6.03;;
23578;SDS011;11967;50.852;4.400;2023-02-01T08:13:24;27.05;;;5.15;;
23578;SDS011;11967;50.852;4.400;2023-02-01T08:15:49;31.17;;;5.68;;
23578;SDS011;11967;50.852;4.400;2023-02-01T08:18:15;35.20;;;5.90;;
23578;SDS011;11967;50.852;4.400;2023-02-01T08:20:42;25.77;;;4.97;;
23578;SDS011;11967;50.852;4.400;2023-02-01T08:23:10;30.90;;;5.45;;
23578;SDS011;11967;50.852;4.400;2023-02-01T08:25:36;29.73;;;5.88;;
23578;SDS011;11967;50.852;4.400;2023-02-01T08:28:03;33.05;;;5.10;;
23578;SDS011;11967;50.852;4.400;2023-02-01T08:30:29;29.25;;;6.07;;
23578;SDS011;11967;50.852;4.400;2023-02-01T08:32:55;29.13;;;5.65;;
23578;SDS011;11967;50.852;4.400;2023-02-01T08:35:21;37.75;;;5.75;;
23578;SDS011;11967;50.852;4.400;2023-02-01T08:37:46;29.80;;;6.10;;
23578;SDS011;11967;50.852;4.400;2023-02-01T08:40:14;32.03;;;5.47;;
23578;SDS011;11967;50.852;4.400;2023-02-01T08:42:40;38.03;;;9.07;;
23578;SDS011;11967;50.852;4.400;2023-02-01T08:45:19;28.02;;;5.20;;
23578;SDS011;11967;50.852;4.400;2023-02-01T08:47:53;31.05;;;5.07;;
23578;SDS011;11967;50.852;4.400;2023-02-01T08:50:19;33.40;;;5.45;;
23578;SDS011;11967;50.852;4.400;2023-02-01T08:52:45;31.42;;;4.93;;
23578;SDS011;11967;50.852;4.400;2023-02-01T08:55:12;25.58;;;5.20;;
23578;SDS011;11967;50.852;4.400;2023-02-01T08:57:38;43.95;;;5.60;;
23578;SDS011;11967;50.852;4.400;2023-02-01T09:00:04;30.05;;;5.55;;
23578;SDS011;11967;50.852;4.400;2023-02-01T09:02:32;34.13;;;6.47;;
23578;SDS011;11967;50.852;4.400;2023-02-01T09:04:57;31.13;;;5.15;;
23578;SDS011;11967;50.852;4.400;2023-02-01T09:07:23;27.20;;;5.28;;
23578;SDS011;11967;50.852;4.400;2023-02-01T09:09:49;25.67;;;4.97;;
23578;SDS011;11967;50.852;4.400;2023-02-01T09:12:14;32.28;;;5.30;;
23578;SDS011;11967;50.852;4.400;2023-02-01T09:14:40;24.30;;;4.75;;
23578;SDS011;11967;50.852;4.400;2023-02-01T09:17:06;24.52;;;4.47;;
23578;SDS011;11967;50.852;4.400;2023-02-01T09:19:31;29.85;;;4.80;;
23578;SDS011;11967;50.852;4.400;2023-02-01T09:21:57;29.02;;;5.25;;
23578;SDS011;11967;50.852;4.400;2023-02-01T09:24:23;33.25;;;6.22;;
23578;SDS011;11967;50.852;4.400;2023-02-01T09:26:49;24.35;;;4.70;;
23578;SDS011;11967;50.852;4.400;2023-02-01T09:29:14;27.40;;;4.88;;
23578;SDS011;11967;50.852;4.400;2023-02-01T09:31:40;26.42;;;4.60;;
23578;SDS011;11967;50.852;4.400;2023-02-01T09:34:06;32.75;;;6.00;;
23578;SDS011;11967;50.852;4.400;2023-02-01T09:36:33;31.67;;;4.95;;
23578;SDS011;11967;50.852;4.400;2023-02-01T09:38:59;30.90;;;6.07;;
23578;SDS011;11967;50.852;4.400;2023-02-01T09:41:30;26.77;;;5.47;;
23578;SDS011;11967;50.852;4.400;2023-02-01T09:44:26;26.15;;;5.38;;
23578;SDS011;11967;50.852;4.400;2023-02-01T09:47:12;37.10;;;5.60;;
23578;SDS011;11967;50.852;4.400;2023-02-01T09:50:05;28.02;;;5.05;;
23578;SDS011;11967;50.852;4.400;2023-02-01T09:52:52;34.17;;;5.43;;
23578;SDS011;11967;50.852;4.400;2023-02-01T09:55:32;33.95;;;6.25;;
23578;SDS011;11967;50.852;4.400;2023-02-01T10:00:35;30.50;;;5.57;;
23578;SDS011;11967;50.852;4.400;2023-02-01T10:03:03;29.40;;;5.35;;
23578;SDS011;11967;50.852;4.400;2023-02-01T10:11:03;22.92;;;5.38;;
23578;SDS011;11967;50.852;4.400;2023-02-01T10:16:18;21.00;;;4.65;;
23578;SDS011;11967;50.852;4.400;2023-02-01T10:19:16;26.80;;;4.65;;
23578;SDS011;11967;50.852;4.400;2023-02-01T10:21:57;30.52;;;4.70;;
23578;SDS011;11967;50.852;4.400;2023-02-01T10:24:34;23.30;;;4.68;;
23578;SDS011;11967;50.852;4.400;2023-02-01T10:27:21;19.05;;;4.35;;
23578;SDS011;11967;50.852;4.400;2023-02-01T10:29:54;30.60;;;5.15;;
23578;SDS011;11967;50.852;4.400;2023-02-01T10:32:24;24.25;;;4.82;;
23578;SDS011;11967;50.852;4.400;2023-02-01T10:34:57;21.50;;;4.03;;
23578;SDS011;11967;50.852;4.400;2023-02-01T10:39:59;27.60;;;4.93;;
23578;SDS011;11967;50.852;4.400;2023-02-01T10:42:33;26.92;;;4.95;;
23578;SDS011;11967;50.852;4.400;2023-02-01T10:44:59;24.02;;;4.38;;
23578;SDS011;11967;50.852;4.400;2023-02-01T10:47:28;27.08;;;4.18;;
23578;SDS011;11967;50.852;4.400;2023-02-01T10:52:44;26.13;;;4.47;;
23578;SDS011;11967;50.852;4.400;2023-02-01T10:55:37;19.80;;;3.95;;
23578;SDS011;11967;50.852;4.400;2023-02-01T10:58:04;18.95;;;4.03;;
23578;SDS011;11967;50.852;4.400;2023-02-01T11:00:37;21.00;;;3.67;;
23578;SDS011;11967;50.852;4.400;2023-02-01T11:03:19;25.77;;;4.22;;
23578;SDS011;11967;50.852;4.400;2023-02-01T11:05:58;23.02;;;4.50;;
23578;SDS011;11967;50.852;4.400;2023-02-01T11:08:24;22.92;;;3.85;;
23578;SDS011;11967;50.852;4.400;2023-02-01T11:10:57;27.52;;;4.43;;
23578;SDS011;11967;50.852;4.400;2023-02-01T11:13:29;23.08;;;3.88;;
23578;SDS011;11967;50.852;4.400;2023-02-01T11:15:57;21.48;;;4.05;;
23578;SDS011;11967;50.852;4.400;2023-02-01T11:18:27;23.60;;;3.92;;
23578;SDS011;11967;50.852;4.400;2023-02-01T11:20:55;29.98;;;4.70;;
23578;SDS011;11967;50.852;4.400;2023-02-01T11:23:24;20.05;;;4.28;;
23578;SDS011;11967;50.852;4.400;2023-02-01T11:25:56;24.40;;;4.20;;
23578;SDS011;11967;50.852;4.400;2023-02-01T11:28:26;16.90;;;3.58;;
23578;SDS011;11967;50.852;4.400;2023-02-01T11:30:59;31.20;;;8.77;;
23578;SDS011;11967;50.852;4.400;2023-02-01T11:33:30;22.08;;;4.45;;
23578;SDS011;11967;50.852;4.400;2023-02-01T11:36:00;22.42;;;3.60;;
23578;SDS011;11967;50.852;4.400;2023-02-01T11:38:32;23.10;;;4.10;;
23578;SDS011;11967;50.852;4.400;2023-02-01T11:41:14;22.35;;;3.40;;
23578;SDS011;11967;50.852;4.400;2023-02-01T11:43:58;17.77;;;4.15;;
23578;SDS011;11967;50.852;4.400;2023-02-01T11:46:27;27.45;;;4.28;;
23578;SDS011;11967;50.852;4.400;2023-02-01T11:48:55;25.77;;;4.45;;
23578;SDS011;11967;50.852;4.400;2023-02-01T11:51:26;19.02;;;3.72;;
23578;SDS011;11967;50.852;4.400;2023-02-01T12:05:31;16.52;;;3.30;;
23578;SDS011;11967;50.852;4.400;2023-02-01T12:08:31;22.73;;;3.67;;
23578;SDS011;11967;50.852;4.400;2023-02-01T12:11:58;21.40;;;3.25;;
23578;SDS011;11967;50.852;4.400;2023-02-01T12:46:45;15.88;;;2.80;;
23578;SDS011;11967;50.852;4.400;2023-02-01T12:49:16;22.02;;;3.20;;
23578;SDS011;11967;50.852;4.400;2023-02-01T12:51:50;13.00;;;2.70;;
23578;SDS011;11967;50.852;4.400;2023-02-01T12:54:42;8.63;;;2.28;;
23578;SDS011;11967;50.852;4.400;2023-02-01T12:57:33;15.65;;;3.22;;
23578;SDS011;11967;50.852;4.400;2023-02-01T13:03:26;13.60;;;3.17;;
23578;SDS011;11967;50.852;4.400;2023-02-01T13:06:01;11.90;;;2.72;;
23578;SDS011;11967;50.852;4.400;2023-02-01T13:08:53;14.18;;;2.80;;
23578;SDS011;11967;50.852;4.400;2023-02-01T13:11:34;9.57;;;2.53;;
23578;SDS011;11967;50.852;4.400;2023-02-01T13:14:04;16.75;;;2.95;;
23578;SDS011;11967;50.852;4.400;2023-02-01T13:16:47;10.20;;;2.50;;
23578;SDS011;11967;50.852;4.400;2023-02-01T13:19:17;12.48;;;2.47;;
23578;SDS011;11967;50.852;4.400;2023-02-01T13:22:12;9.90;;;2.10;;
23578;SDS011;11967;50.852;4.400;2023-02-01T13:24:45;9.38;;;2.08;;
23578;SDS011;11967;50.852;4.400;2023-02-01T13:27:15;11.55;;;1.90;;
23578;SDS011;11967;50.852;4.400;2023-02-01T13:29:57;13.82;;;2.25;;
23578;SDS011;11967;50.852;4.400;2023-02-01T13:43:49;9.55;;;2.65;;
23578;SDS011;11967;50.852;4.400;2023-02-01T13:46:18;14.35;;;2.90;;
23578;SDS011;11967;50.852;4.400;2023-02-01T13:48:56;12.48;;;2.42;;
23578;SDS011;11967;50.852;4.400;2023-02-01T13:54:07;14.20;;;3.13;;
23578;SDS011;11967;50.852;4.400;2023-02-01T13:57:00;15.15;;;2.28;;
23578;SDS011;11967;50.852;4.400;2023-02-01T14:02:36;19.33;;;3.00;;
23578;SDS011;11967;50.852;4.400;2023-02-01T14:05:12;14.27;;;2.78;;
23578;SDS011;11967;50.852;4.400;2023-02-01T14:24:26;15.60;;;2.97;;
23578;SDS011;11967;50.852;4.400;2023-02-01T14:29:12;15.65;;;2.88;;
23578;SDS011;11967;50.852;4.400;2023-02-01T14:31:54;15.90;;;2.63;;
23578;SDS011;11967;50.852;4.400;2023-02-01T14:34:28;17.63;;;3.65;;
23578;SDS011;11967;50.852;4.400;2023-02-01T14:37:08;11.60;;;2.63;;
23578;SDS011;11967;50.852;4.400;2023-02-01T14:47:54;16.88;;;3.17;;
23578;SDS011;11967;50.852;4.400;2023-02-01T14:50:40;14.32;;;3.42;;
23578;SDS011;11967;50.852;4.400;2023-02-01T14:55:52;19.25;;;3.25;;
23578;SDS011;11967;50.852;4.400;2023-02-01T15:03:49;15.52;;;2.70;;
23578;SDS011;11967;50.852;4.400;2023-02-01T15:12:05;21.60;;;3.70;;
23578;SDS011;11967;50.852;4.400;2023-02-01T15:17:55;16.50;;;3.47;;
23578;SDS011;11967;50.852;4.400;2023-02-01T15:20:26;14.32;;;3.00;;
23578;SDS011;11967;50.852;4.400;2023-02-01T15:22:58;19.00;;;3.35;;
23578;SDS011;11967;50.852;4.400;2023-02-01T15:25:29;28.42;;;3.97;;
23578;SDS011;11967;50.852;4.400;2023-02-01T15:27:59;22.40;;;3.72;;
23578;SDS011;11967;50.852;4.400;2023-02-01T15:30:29;25.73;;;4.47;;
23578;SDS011;11967;50.852;4.400;2023-02-01T15:33:17;14.10;;;4.00;;
23578;SDS011;11967;50.852;4.400;2023-02-01T15:35:47;15.82;;;2.72;;
23578;SDS011;11967;50.852;4.400;2023-02-01T15:38:42;19.40;;;3.50;;
23578;SDS011;11967;50.852;4.400;2023-02-01T15:41:09;16.67;;;3.05;;
23578;SDS011;11967;50.852;4.400;2023-02-01T15:43:47;15.93;;;3.08;;
23578;SDS011;11967;50.852;4.400;2023-02-01T15:48:57;16.30;;;3.72;;
23578;SDS011;11967;50.852;4.400;2023-02-01T15:51:25;21.83;;;3.78;;
23578;SDS011;11967;50.852;4.400;2023-02-01T15:53:57;19.90;;;3.63;;
23578;SDS011;11967;50.852;4.400;2023-02-01T15:56:33;21.95;;;3.92;;
23578;SDS011;11967;50.852;4.400;2023-02-01T15:59:00;24.23;;;4.00;;
23578;SDS011;11967;50.852;4.400;2023-02-01T16:01:29;22.48;;;3.78;;
23578;SDS011;11967;50.852;4.400;2023-02-01T16:09:21;20.00;;;4.05;;
23578;SDS011;11967;50.852;4.400;2023-02-01T16:11:59;22.05;;;3.95;;
23578;SDS011;11967;50.852;4.400;2023-02-01T16:14:26;22.95;;;3.75;;
23578;SDS011;11967;50.852;4.400;2023-02-01T16:16:53;28.70;;;4.32;;
23578;SDS011;11967;50.852;4.400;2023-02-01T16:19:20;13.70;;;3.15;;
23578;SDS011;11967;50.852;4.400;2023-02-01T16:21:48;20.23;;;4.38;;
23578;SDS011;11967;50.852;4.400;2023-02-01T16:24:13;23.00;;;3.78;;
23578;SDS011;11967;50.852;4.400;2023-02-01T16:26:39;23.92;;;3.95;;
23578;SDS011;11967;50.852;4.400;2023-02-01T16:29:05;28.35;;;3.72;;
23578;SDS011;11967;50.852;4.400;2023-02-01T16:31:37;17.65;;;3.50;;
23578;SDS011;11967;50.852;4.400;2023-02-01T16:34:04;24.80;;;4.50;;
23578;SDS011;11967;50.852;4.400;2023-02-01T16:36:31;26.00;;;4.18;;
23578;SDS011;11967;50.852;4.400;2023-02-01T16:38:57;25.70;;;3.85;;
23578;SDS011;11967;50.852;4.400;2023-02-01T16:41:24;16.60;;;3.70;;
23578;SDS011;11967;50.852;4.400;2023-02-01T16:43:51;20.10;;;3.88;;
23578;SDS011;11967;50.852;4.400;2023-02-01T16:46:19;19.70;;;3.75;;
23578;SDS011;11967;50.852;4.400;2023-02-01T16:49:00;23.35;;;4.28;;
23578;SDS011;11967;50.852;4.400;2023-02-01T16:51:28;27.73;;;5.00;;
23578;SDS011;11967;50.852;4.400;2023-02-01T16:53:57;20.67;;;3.20;;
23578;SDS011;11967;50.852;4.400;2023-02-01T16:56:28;21.42;;;4.13;;
23578;SDS011;11967;50.852;4.400;2023-02-01T16:58:56;22.67;;;4.55;;
23578;SDS011;11967;50.852;4.400;2023-02-01T17:01:22;31.20;;;4.78;;
23578;SDS011;11967;50.852;4.400;2023-02-01T17:03:47;21.92;;;4.30;;
23578;SDS011;11967;50.852;4.400;2023-02-01T17:06:15;21.40;;;3.47;;
23578;SDS011;11967;50.852;4.400;2023-02-01T17:08:44;25.88;;;4.07;;
23578;SDS011;11967;50.852;4.400;2023-02-01T17:11:12;19.98;;;3.97;;
23578;SDS011;11967;50.852;4.400;2023-02-01T17:13:38;20.48;;;4.68;;
23578;SDS011;11967;50.852;4.400;2023-02-01T17:16:28;17.77;;;3.92;;
23578;SDS011;11967;50.852;4.400;2023-02-01T17:19:04;23.75;;;4.38;;
23578;SDS011;11967;50.852;4.400;2023-02-01T17:21:35;19.25;;;4.40;;
23578;SDS011;11967;50.852;4.400;2023-02-01T17:24:14;28.23;;;4.90;;
23578;SDS011;11967;50.852;4.400;2023-02-01T17:26:42;24.90;;;4.40;;
23578;SDS011;11967;50.852;4.400;2023-02-01T17:29:08;26.55;;;4.88;;
23578;SDS011;11967;50.852;4.400;2023-02-01T17:31:41;17.38;;;4.22;;
23578;SDS011;11967;50.852;4.400;2023-02-01T17:34:10;27.65;;;4.55;;
23578;SDS011;11967;50.852;4.400;2023-02-01T17:36:39;25.83;;;4.80;;
23578;SDS011;11967;50.852;4.400;2023-02-01T17:39:05;22.80;;;3.95;;